Kyoto, Japan

1:33 PM JST on September 25, 2016 (GMT +0900)
Osaka International | | Change Station

Elev 49 ft 34.78 °N, 135.44 °E | Updated 33 minutes ago

Mostly Cloudy
Mostly Cloudy
84 °F
Feels Like 85 °F
N
4
Wind Variable Wind from Variable

Today
High -- | Low -- °F
--% Chance of Precip.
Yesterday
High -- | Low -- °F
Precip. -- in
Pressure 30.01 in
Visibility 6.2 miles
Clouds Few 2000 ft
Mostly Cloudy 7000 ft
Mostly Cloudy 12000 ft
Heat Index 85 °F
Dew Point 63 °F
Humidity 48%
Rainfall 0.00 in
Snow Depth Not available.
5:47 AM 5:49 PM
Waning Crescent, 31% visible
METAR RJOO 250400Z VRB03KT 9999 FEW020 BKN070 BKN120 29/17 Q1016 RMK 1CU020 5AC070 6AC120 A3002
Pressure 30.01 in
Visibility 6.2 miles
Clouds Few 2000 ft
Mostly Cloudy 7000 ft
Mostly Cloudy 12000 ft
Heat Index 85 °F
Dew Point 63 °F
Humidity 48%
Rainfall 0.00 in
Snow Depth Not available.
5:47 AM 5:49 PM
Waning Crescent, 31% visible
METAR RJOO 250400Z VRB03KT 9999 FEW020 BKN070 BKN120 29/17 Q1016 RMK 1CU020 5AC070 6AC120 A3002

10-Day Weather Forecast

No radar image for this location.
×

Almanac

Astronomy

Sep. 25, 2016 Rise Set
Actual Time
Civil Twilight
Nautical Twilight
Astronomical Twilight
Moon
Length of Visible Light
Length of Day
Tomorrow will be .
, % of the Moon is Illuminated

Today's Extremes

Country Highs Country Lows

Community

WunderPhotos

Upload Photos

1,941,545 photos uploaded!

WunderBlog® & News

Nearby

Air Quality

  Air Quality AQ Index Pollutant
Not available.

Snow Depth

Station Depth Elevation

Earthquake Activity

City Distance Mag. Time & Date
Minimum magnitude displayed is 2.5.

Coastal Water Temperatures

Place Temperature

Stations

Nearby Weather Stations

Station Location Temp. Windchill Dew Point Humidity Wind Precip. Elev Updated Type